TAF Text Data
IDs:
Format:
Raw Decoded Include METAR

Data at: 1728 UTC 20 May 2022

VDPP 201700Z 23004KT 200V260 9000 SCT015 SCT040 29/25 Q1007

TAF VDPP 201100Z 2012/2106 27008KT 9999 SCT017
  TEMPO 2012/2017 27015G27KT 5000 TSRA SCT015 FEW017CB SCT040